Time;durP1;ratioP1;P1;durP2;ratioP2;P2;SDS_P1;SDS_P2;PMS_P1;PMS_P2;Temp;Humidity;BMP_temperature;BMP_pressure;BME280_temperature;BME280_humidity;BME280_pressure;Samples;Min_cycle;Max_cycle;Signal;HPM_P1;HPM_P2
2022/09/10 00:00:33;;;;;;;15.45;11.35;;;15.60;99.90;;;;;;5099177;28;20048;-52
2022/09/10 00:03:01;;;;;;;17.08;11.18;;;15.50;99.90;;;;;;5098963;28;20090;-52
2022/09/10 00:05:27;;;;;;;18.75;12.65;;;15.50;99.90;;;;;;5099538;28;20040;-52
2022/09/10 00:07:52;;;;;;;16.80;12.45;;;15.40;99.90;;;;;;5098715;28;20044;-50
2022/09/10 00:10:18;;;;;;;17.38;13.07;;;15.30;99.90;;;;;;5098982;28;20135;-51
2022/09/10 00:12:47;;;;;;;18.90;13.50;;;15.50;99.90;;;;;;5098631;28;20055;-52
2022/09/10 00:15:14;;;;;;;18.33;11.77;;;15.40;99.90;;;;;;5099224;28;20099;-51
2022/09/10 00:17:40;;;;;;;17.98;12.65;;;15.40;99.90;;;;;;5083409;28;20101;-51
2022/09/10 00:20:06;;;;;;;19.33;13.30;;;15.50;99.90;;;;;;5078313;28;20048;-51
2022/09/10 00:22:33;;;;;;;18.23;12.05;;;15.60;99.90;;;;;;5078788;28;20045;-51
2022/09/10 00:24:59;;;;;;;19.52;13.25;;;15.50;99.90;;;;;;5077633;28;20053;-49
2022/09/10 00:27:25;;;;;;;19.40;13.50;;;15.60;99.90;;;;;;5078520;28;20055;-50
2022/09/10 00:29:52;;;;;;;20.55;14.80;;;15.60;99.90;;;;;;5077656;28;20072;-50
2022/09/10 00:32:17;;;;;;;17.98;13.77;;;15.60;99.90;;;;;;5078794;28;20047;-52
2022/09/10 00:34:43;;;;;;;19.38;14.63;;;15.60;99.90;;;;;;5076880;28;20048;-51
2022/09/10 00:37:09;;;;;;;22.02;14.52;;;15.80;99.90;;;;;;5078211;28;20045;-50
2022/09/10 00:39:34;;;;;;;18.70;14.15;;;15.60;99.90;;;;;;5098276;28;20039;-53
2022/09/10 00:42:00;;;;;;;20.15;14.23;;;15.70;99.90;;;;;;5098011;28;20043;-52
2022/09/10 00:44:40;;;;;;;24.83;15.18;;;15.60;99.90;;;;;;5098535;28;20044;-51
2022/09/10 00:47:12;;;;;;;21.88;15.88;;;15.80;99.90;;;;;;5098070;28;20071;-50
2022/09/10 00:49:45;;;;;;;20.98;14.85;;;15.70;99.90;;;;;;5097210;28;20044;-52
2022/09/10 00:52:12;;;;;;;21.98;15.57;;;15.70;99.90;;;;;;5098418;28;20074;-52
2022/09/10 00:54:40;;;;;;;21.83;14.95;;;15.70;99.90;;;;;;5097994;28;20063;-50
2022/09/10 00:57:12;;;;;;;21.02;16.17;;;15.70;99.90;;;;;;5098299;28;20055;-53
2022/09/10 00:59:41;;;;;;;20.80;14.77;;;15.70;99.90;;;;;;5097294;28;20084;-50
2022/09/10 01:02:07;;;;;;;19.70;14.82;;;15.80;99.90;;;;;;5098536;28;20556;-53
2022/09/10 01:04:33;;;;;;;20.05;14.98;;;15.80;99.90;;;;;;5097746;28;20651;-49
2022/09/10 01:07:00;;;;;;;21.05;16.17;;;15.80;99.90;;;;;;5098132;28;20040;-50
2022/09/10 01:09:27;;;;;;;19.45;15.80;;;15.80;99.90;;;;;;5097788;28;20040;-52
2022/09/10 01:12:06;;;;;;;22.92;15.88;;;15.80;99.90;;;;;;5097632;28;20400;-50
2022/09/10 01:14:59;;;;;;;21.15;15.93;;;15.80;99.90;;;;;;5098172;28;20040;-51
2022/09/10 01:17:48;;;;;;;23.30;15.85;;;15.80;99.90;;;;;;5084117;28;20037;-50
2022/09/10 01:20:20;;;;;;;25.65;16.52;;;15.80;99.90;;;;;;5076283;28;20060;-49
2022/09/10 01:23:23;;;;;;;23.48;16.30;;;15.80;99.90;;;;;;5077963;28;20083;-52
2022/09/10 01:25:52;;;;;;;22.60;16.70;;;15.90;99.90;;;;;;5077445;28;20051;-50
2022/09/10 01:28:40;;;;;;;23.33;16.95;;;15.70;99.90;;;;;;5077896;28;20052;-52
2022/09/10 01:31:24;;;;;;;24.92;16.70;;;15.70;99.90;;;;;;5077819;28;20044;-53
2022/09/10 01:34:26;;;;;;;23.55;16.35;;;15.80;99.90;;;;;;5075646;28;20063;-50
2022/09/10 01:36:56;;;;;;;22.55;17.23;;;15.60;99.90;;;;;;5080102;28;20056;-51
2022/09/10 01:39:23;;;;;;;28.15;19.70;;;15.60;99.90;;;;;;5099962;28;20689;-52
2022/09/10 01:41:51;;;;;;;28.40;19.73;;;15.50;99.90;;;;;;5100339;28;20059;-52
2022/09/10 01:44:40;;;;;;;28.60;20.42;;;15.60;99.90;;;;;;5102078;28;20054;-51
2022/09/10 01:47:30;;;;;;;28.95;20.38;;;15.60;99.90;;;;;;5101366;28;20036;-50
2022/09/10 01:50:13;;;;;;;32.80;21.75;;;15.50;99.90;;;;;;5101498;28;20511;-52
2022/09/10 01:53:14;;;;;;;30.80;21.13;;;15.50;99.90;;;;;;5101923;28;20047;-51
2022/09/10 01:56:09;;;;;;;28.90;20.45;;;15.50;99.90;;;;;;5101370;28;20055;-50
2022/09/10 01:58:41;;;;;;;31.38;21.85;;;15.60;99.90;;;;;;5089551;28;20052;-53
2022/09/10 02:01:15;;;;;;;30.60;22.02;;;15.70;99.90;;;;;;5101752;28;20047;-50
2022/09/10 02:03:45;;;;;;;35.63;23.40;;;15.60;99.90;;;;;;5100741;28;20070;-50
2022/09/10 02:06:15;;;;;;;33.38;22.58;;;15.50;99.90;;;;;;5100335;28;20094;-53
2022/09/10 02:08:44;;;;;;;36.47;22.92;;;15.60;99.90;;;;;;5101107;28;20056;-52
2022/09/10 02:11:13;;;;;;;34.90;23.63;;;15.60;99.90;;;;;;5101462;28;20060;-52
2022/09/10 02:13:41;;;;;;;33.08;23.48;;;15.40;99.90;;;;;;5101451;28;20115;-52
2022/09/10 02:16:37;;;;;;;36.20;22.92;;;15.50;99.90;;;;;;5097767;28;20048;-52
2022/09/10 02:19:04;;;;;;;32.65;22.65;;;15.70;99.90;;;;;;5076682;28;20045;-52
2022/09/10 02:21:32;;;;;;;32.40;22.85;;;15.50;99.90;;;;;;5080870;28;20558;-51
2022/09/10 02:24:04;;;;;;;33.33;22.33;;;15.50;99.90;;;;;;5081055;28;20045;-51
2022/09/10 02:26:32;;;;;;;32.78;22.80;;;15.50;99.90;;;;;;5080856;28;20139;-53
2022/09/10 02:28:59;;;;;;;36.60;24.42;;;15.70;99.90;;;;;;5080233;28;20543;-50
2022/09/10 02:31:24;;;;;;;37.15;23.98;;;15.60;99.90;;;;;;5081006;28;20048;-50
2022/09/10 02:33:50;;;;;;;33.72;24.90;;;15.60;99.90;;;;;;5080203;28;20390;-52
2022/09/10 02:36:16;;;;;;;36.78;24.50;;;15.50;99.90;;;;;;5080982;28;20095;-50
2022/09/10 02:38:43;;;;;;;38.55;25.73;;;15.60;99.90;;;;;;5092751;28;20096;-49
2022/09/10 02:41:08;;;;;;;33.90;24.17;;;15.50;99.90;;;;;;5100763;28;20040;-50
2022/09/10 02:43:36;;;;;;;35.53;24.67;;;15.50;99.90;;;;;;5100925;28;20050;-50
2022/09/10 02:46:06;;;;;;;38.63;25.70;;;15.70;99.90;;;;;;5100387;28;20075;-51
2022/09/10 02:48:32;;;;;;;35.70;25.40;;;15.70;99.90;;;;;;5100604;28;20051;-52
2022/09/10 02:50:58;;;;;;;33.63;24.08;;;15.60;99.90;;;;;;5099863;28;20040;-51
2022/09/10 02:53:24;;;;;;;35.35;25.75;;;15.50;99.90;;;;;;5100827;28;20048;-49
2022/09/10 02:55:50;;;;;;;36.78;25.65;;;15.50;99.90;;;;;;5100025;28;20047;-52
2022/09/10 02:58:17;;;;;;;36.20;24.92;;;15.50;99.90;;;;;;5100451;28;20606;-51
2022/09/10 03:00:44;;;;;;;38.80;25.42;;;15.50;99.90;;;;;;5100576;28;20392;-52
2022/09/10 03:03:10;;;;;;;34.15;24.48;;;15.50;99.90;;;;;;5100297;28;20421;-52
2022/09/10 03:05:37;;;;;;;36.40;25.60;;;15.50;99.90;;;;;;5100534;28;20047;-52
2022/09/10 03:08:08;;;;;;;38.08;25.70;;;15.50;99.90;;;;;;5099629;28;20029;-48
2022/09/10 03:10:34;;;;;;;32.53;23.50;;;15.60;99.90;;;;;;5100551;28;20090;-49
2022/09/10 03:13:00;;;;;;;35.90;26.13;;;15.60;99.90;;;;;;5100091;28;20074;-51
2022/09/10 03:15:26;;;;;;;38.08;25.35;;;15.50;99.90;;;;;;5099109;28;20048;-55
2022/09/10 03:17:52;;;;;;;36.47;24.90;;;15.60;99.90;;;;;;5082690;28;20041;-51
2022/09/10 03:20:18;;;;;;;34.13;25.70;;;15.60;99.90;;;;;;5079576;28;20128;-51
2022/09/10 03:22:44;;;;;;;34.80;25.50;;;15.60;99.90;;;;;;5079819;28;20040;-49
2022/09/10 03:25:10;;;;;;;37.15;26.02;;;15.60;99.90;;;;;;5079062;28;20044;-50
2022/09/10 03:27:36;;;;;;;35.17;26.20;;;15.60;99.90;;;;;;5080183;28;20101;-51
2022/09/10 03:30:02;;;;;;;35.17;25.40;;;15.50;99.90;;;;;;5079330;28;20079;-49
2022/09/10 03:32:27;;;;;;;33.28;25.23;;;15.60;99.90;;;;;;5079988;28;20041;-49
2022/09/10 03:34:53;;;;;;;37.88;26.42;;;15.60;99.90;;;;;;5079666;28;20036;-52
2022/09/10 03:37:19;;;;;;;34.88;26.00;;;15.60;99.90;;;;;;5080040;28;20054;-50
2022/09/10 03:39:45;;;;;;;38.65;26.35;;;15.90;99.90;;;;;;5099451;28;20101;-50
2022/09/10 03:42:11;;;;;;;35.50;25.70;;;15.50;99.90;;;;;;5099183;28;20430;-53
2022/09/10 03:44:37;;;;;;;35.08;26.02;;;15.60;99.90;;;;;;5098591;28;20040;-50
2022/09/10 03:47:03;;;;;;;37.05;26.92;;;15.50;99.90;;;;;;5099078;28;20051;-52
2022/09/10 03:49:29;;;;;;;40.90;26.85;;;15.50;99.90;;;;;;5099803;28;20052;-50
2022/09/10 03:51:55;;;;;;;38.30;25.88;;;15.50;99.90;;;;;;5099543;28;20381;-52
2022/09/10 03:54:20;;;;;;;37.65;26.75;;;15.50;99.90;;;;;;5099198;28;20458;-53
2022/09/10 03:56:46;;;;;;;40.05;28.05;;;15.50;99.90;;;;;;5099655;28;20377;-51
2022/09/10 03:59:12;;;;;;;40.22;27.27;;;15.60;99.90;;;;;;5097799;28;20044;-52
2022/09/10 04:01:39;;;;;;;39.83;26.70;;;15.50;99.90;;;;;;5099583;28;20067;-53
2022/09/10 04:04:04;;;;;;;37.72;26.67;;;15.50;99.90;;;;;;5098970;28;20048;-51
2022/09/10 04:06:33;;;;;;;40.45;28.48;;;15.40;99.90;;;;;;5099410;28;20115;-52
2022/09/10 04:09:00;;;;;;;38.17;26.98;;;15.30;99.90;;;;;;5098954;28;20044;-52
2022/09/10 04:11:26;;;;;;;42.63;27.45;;;15.40;99.90;;;;;;5098944;28;20076;-52
2022/09/10 04:13:56;;;;;;;38.40;27.70;;;15.30;99.90;;;;;;5099220;28;20071;-53
2022/09/10 04:16:22;;;;;;;38.88;27.92;;;15.50;99.90;;;;;;5093301;28;20044;-51
2022/09/10 04:18:48;;;;;;;40.25;28.98;;;15.40;99.90;;;;;;5077551;28;20138;-52
2022/09/10 04:21:14;;;;;;;39.05;26.92;;;15.50;99.90;;;;;;5078147;28;20044;-52
2022/09/10 04:23:40;;;;;;;40.45;28.55;;;15.50;99.90;;;;;;5077668;28;20044;-50
2022/09/10 04:26:16;;;;;;;40.75;28.25;;;15.50;99.90;;;;;;5078527;28;20048;-49
2022/09/10 04:28:43;;;;;;;35.85;26.13;;;15.50;99.90;;;;;;5077970;28;20048;-52
2022/09/10 04:31:09;;;;;;;40.47;27.65;;;15.40;99.90;;;;;;5078501;28;20044;-52
2022/09/10 04:33:35;;;;;;;35.83;27.23;;;15.50;99.90;;;;;;5077691;28;20048;-50
2022/09/10 04:36:02;;;;;;;39.33;26.58;;;15.40;99.90;;;;;;5078700;28;20071;-50
2022/09/10 04:38:29;;;;;;;40.95;27.98;;;15.60;99.90;;;;;;5088626;28;20047;-52
2022/09/10 04:40:56;;;;;;;37.75;26.98;;;15.60;99.90;;;;;;5098549;28;20048;-52
2022/09/10 04:43:24;;;;;;;40.70;28.48;;;15.40;99.90;;;;;;5098758;28;20043;-52
2022/09/10 04:45:51;;;;;;;39.38;28.35;;;15.40;99.90;;;;;;5096681;28;20050;-50
2022/09/10 04:48:16;;;;;;;40.75;27.83;;;15.40;99.90;;;;;;5098395;28;20614;-51
2022/09/10 04:50:43;;;;;;;38.53;27.67;;;15.50;99.90;;;;;;5097966;28;20036;-49
2022/09/10 04:53:08;;;;;;;42.47;28.83;;;15.50;99.90;;;;;;5097310;28;20036;-50
2022/09/10 04:55:38;;;;;;;39.05;29.48;;;15.40;99.90;;;;;;5097900;28;20044;-52
2022/09/10 04:58:04;;;;;;;40.22;27.27;;;15.50;99.90;;;;;;5098547;28;20601;-52
2022/09/10 05:00:31;;;;;;;41.20;29.33;;;15.50;99.90;;;;;;5098032;28;20127;-50
2022/09/10 05:02:56;;;;;;;41.30;29.50;;;15.50;99.90;;;;;;5097956;28;20055;-49
2022/09/10 05:05:22;;;;;;;37.53;27.35;;;15.50;99.90;;;;;;5098284;28;20373;-53
2022/09/10 05:07:48;;;;;;;40.85;26.80;;;15.50;99.90;;;;;;5097582;28;20046;-52
2022/09/10 05:10:14;;;;;;;38.92;25.63;;;15.60;99.90;;;;;;5097153;28;20044;-51
2022/09/10 05:12:40;;;;;;;39.95;26.02;;;15.50;99.90;;;;;;5097657;28;20048;-51
2022/09/10 05:15:06;;;;;;;37.72;26.38;;;15.50;99.90;;;;;;5098294;28;20048;-51
2022/09/10 05:17:32;;;;;;;38.70;26.30;;;15.60;99.90;;;;;;5082947;28;20055;-52
2022/09/10 05:19:58;;;;;;;38.28;25.60;;;15.50;99.90;;;;;;5077559;28;20106;-52
2022/09/10 05:22:24;;;;;;;35.78;27.23;;;15.50;99.90;;;;;;5077840;28;20154;-51
2022/09/10 05:24:50;;;;;;;40.13;27.27;;;15.50;99.90;;;;;;5077176;28;20056;-51
2022/09/10 05:27:16;;;;;;;39.25;26.23;;;15.50;99.90;;;;;;5078096;28;20052;-50
2022/09/10 05:29:42;;;;;;;38.65;25.80;;;15.70;99.90;;;;;;5077114;28;20051;-52
2022/09/10 05:32:12;;;;;;;38.53;27.65;;;15.70;99.90;;;;;;5078011;28;20064;-52
2022/09/10 05:34:38;;;;;;;40.78;26.42;;;15.60;99.90;;;;;;5077774;28;20053;-51
2022/09/10 05:37:04;;;;;;;39.00;27.10;;;15.70;99.90;;;;;;5077458;28;20076;-51
2022/09/10 05:39:30;;;;;;;36.90;25.42;;;15.60;99.90;;;;;;5096823;28;20060;-51
2022/09/10 05:41:56;;;;;;;41.15;26.67;;;15.60;99.90;;;;;;5097355;28;20079;-50
2022/09/10 05:44:21;;;;;;;37.50;25.65;;;15.60;99.90;;;;;;5097913;28;20059;-50
2022/09/10 05:46:47;;;;;;;33.65;25.55;;;15.70;99.90;;;;;;5097384;28;20052;-49
2022/09/10 05:49:13;;;;;;;37.95;26.02;;;15.80;99.90;;;;;;5097952;28;20044;-49
2022/09/10 05:51:38;;;;;;;36.17;25.17;;;15.80;99.90;;;;;;5097598;28;20477;-52
2022/09/10 05:54:04;;;;;;;34.20;24.92;;;15.90;99.90;;;;;;5097781;28;20394;-50
2022/09/10 05:56:30;;;;;;;33.78;25.50;;;15.70;99.90;;;;;;5097936;28;20040;-52
2022/09/10 05:58:56;;;;;;;34.72;24.58;;;15.70;99.90;;;;;;5095363;28;20565;-49
2022/09/10 06:01:22;;;;;;;33.08;24.85;;;15.80;99.90;;;;;;5097933;28;20066;-52
2022/09/10 06:03:49;;;;;;;34.40;24.05;;;15.80;99.90;;;;;;5096998;28;20123;-51
2022/09/10 06:06:15;;;;;;;31.98;24.17;;;15.80;99.90;;;;;;5098035;28;20044;-51
2022/09/10 06:08:42;;;;;;;33.78;23.65;;;15.90;99.90;;;;;;5097317;28;20520;-52
2022/09/10 06:11:09;;;;;;;30.02;22.83;;;15.90;99.90;;;;;;5097654;28;20066;-52
2022/09/10 06:13:38;;;;;;;31.30;23.02;;;15.90;99.90;;;;;;5097646;28;20040;-51
2022/09/10 06:16:04;;;;;;;35.50;23.50;;;15.90;99.90;;;;;;5094619;28;20037;-50
2022/09/10 06:18:31;;;;;;;32.10;24.02;;;15.80;99.90;;;;;;5077286;28;20049;-49
2022/09/10 06:21:18;;;;;;;33.42;23.45;;;15.90;99.90;;;;;;5076636;28;20044;-53
2022/09/10 06:23:45;;;;;;;30.30;22.15;;;15.90;99.90;;;;;;5081190;28;20043;-51
2022/09/10 06:26:12;;;;;;;29.40;22.08;;;15.90;99.90;;;;;;5080985;28;20088;-49
2022/09/10 06:28:38;;;;;;;30.45;21.55;;;15.90;99.90;;;;;;5080461;28;20053;-51
2022/09/10 06:31:04;;;;;;;28.15;21.63;;;16.00;99.90;;;;;;5080816;28;20044;-49
2022/09/10 06:33:31;;;;;;;30.98;21.98;;;16.00;99.90;;;;;;5080069;28;20127;-51
2022/09/10 06:35:59;;;;;;;32.63;22.42;;;15.90;99.90;;;;;;5080940;28;20127;-51
2022/09/10 06:38:28;;;;;;;29.60;21.00;;;16.00;99.90;;;;;;5088881;28;20054;-51
2022/09/10 06:41:00;;;;;;;31.13;22.67;;;15.90;99.90;;;;;;5100818;28;20416;-49
2022/09/10 06:43:27;;;;;;;30.52;22.02;;;16.00;99.90;;;;;;5100969;28;20043;-52
2022/09/10 06:45:54;;;;;;;31.83;21.75;;;15.90;99.90;;;;;;5100348;28;20050;-49
2022/09/10 06:48:26;;;;;;;28.27;20.58;;;15.90;99.90;;;;;;5100583;28;20548;-52
2022/09/10 06:50:54;;;;;;;29.35;21.83;;;16.00;99.90;;;;;;5100011;28;20550;-51
2022/09/10 06:53:23;;;;;;;29.02;21.55;;;16.10;99.90;;;;;;5100883;28;20036;-50
2022/09/10 06:55:52;;;;;;;29.63;20.63;;;16.10;99.90;;;;;;5100387;28;20067;-51
2022/09/10 06:58:20;;;;;;;28.63;20.30;;;16.20;99.90;;;;;;5100445;28;20040;-49
2022/09/10 07:00:46;;;;;;;29.02;20.65;;;16.10;99.90;;;;;;5100365;28;20078;-49
2022/09/10 07:03:17;;;;;;;31.10;22.60;;;16.20;99.90;;;;;;5099887;28;20044;-49
2022/09/10 07:05:44;;;;;;;30.55;21.25;;;16.20;99.90;;;;;;5100423;28;20087;-52
2022/09/10 07:08:11;;;;;;;28.98;20.60;;;16.20;99.90;;;;;;5098457;28;20054;-50
2022/09/10 07:10:37;;;;;;;26.75;20.30;;;16.20;99.90;;;;;;5100314;28;20058;-54
2022/09/10 07:13:03;;;;;;;28.77;21.48;;;16.30;99.90;;;;;;5100195;28;20044;-52
2022/09/10 07:15:29;;;;;;;30.23;21.80;;;16.10;99.90;;;;;;5100040;28;20561;-51
2022/09/10 07:17:55;;;;;;;33.20;23.13;;;16.10;99.90;;;;;;5081951;28;20104;-52
2022/09/10 07:20:22;;;;;;;32.45;22.95;;;16.30;99.90;;;;;;5079027;28;20044;-52
2022/09/10 07:22:54;;;;;;;33.20;23.38;;;16.20;99.90;;;;;;5080063;28;20075;-52
2022/09/10 07:25:21;;;;;;;30.30;21.88;;;16.30;99.90;;;;;;5079042;28;20058;-51
2022/09/10 07:27:47;;;;;;;34.85;22.55;;;16.20;99.90;;;;;;5080085;28;20049;-50
2022/09/10 07:30:13;;;;;;;31.58;20.90;;;16.20;99.90;;;;;;5079464;28;20051;-52
2022/09/10 07:32:39;;;;;;;33.45;21.42;;;16.40;99.90;;;;;;5079378;28;20040;-52
2022/09/10 07:35:06;;;;;;;29.20;22.17;;;16.40;99.90;;;;;;5078856;28;20048;-51
2022/09/10 07:37:32;;;;;;;32.10;22.33;;;16.30;99.90;;;;;;5080600;28;20044;-50
2022/09/10 07:39:58;;;;;;;28.98;21.20;;;16.50;99.90;;;;;;5099813;28;20078;-49
2022/09/10 07:42:24;;;;;;;30.92;21.90;;;16.50;99.90;;;;;;5097871;28;20087;-48
2022/09/10 07:44:50;;;;;;;32.08;21.25;;;16.70;99.90;;;;;;5098795;28;20132;-50
2022/09/10 07:47:16;;;;;;;31.63;21.20;;;16.50;99.90;;;;;;5099163;28;20058;-50
2022/09/10 07:49:43;;;;;;;33.20;22.13;;;16.70;99.90;;;;;;5099425;28;20075;-52
2022/09/10 07:52:10;;;;;;;27.85;20.73;;;16.70;99.90;;;;;;5099576;28;20124;-51
2022/09/10 07:54:36;;;;;;;32.50;22.23;;;16.70;99.90;;;;;;5099016;28;20464;-53
2022/09/10 07:57:03;;;;;;;29.95;21.15;;;16.60;99.90;;;;;;5099657;28;20062;-50
2022/09/10 07:59:30;;;;;;;30.08;20.80;;;16.70;99.90;;;;;;5097458;28;20090;-51
2022/09/10 08:01:58;;;;;;;30.92;21.30;;;16.70;99.90;;;;;;5099408;28;20052;-49
2022/09/10 08:04:23;;;;;;;33.53;21.45;;;16.80;99.90;;;;;;5099156;28;20119;-51
2022/09/10 08:06:50;;;;;;;28.02;20.45;;;16.90;99.90;;;;;;5099294;28;20105;-52
2022/09/10 08:09:18;;;;;;;28.08;21.02;;;17.00;99.90;;;;;;5098962;28;20070;-50
2022/09/10 08:11:44;;;;;;;28.55;20.40;;;17.10;99.90;;;;;;5098846;28;20100;-50
2022/09/10 08:14:12;;;;;;;33.33;21.35;;;17.10;99.90;;;;;;5099158;28;20526;-49
2022/09/10 08:16:37;;;;;;;30.40;20.88;;;16.90;99.90;;;;;;5090925;28;20470;-52
2022/09/10 08:19:04;;;;;;;29.65;20.60;;;17.20;99.90;;;;;;5079051;28;20068;-50
2022/09/10 08:21:30;;;;;;;28.55;19.45;;;17.20;99.90;;;;;;5078453;28;20044;-52
2022/09/10 08:23:56;;;;;;;26.13;19.60;;;17.20;99.90;;;;;;5078688;28;20036;-49
2022/09/10 08:26:24;;;;;;;27.40;19.75;;;17.20;99.90;;;;;;5078605;28;20094;-52
2022/09/10 08:28:54;;;;;;;27.85;18.33;;;17.10;99.90;;;;;;5077765;28;20539;-51
2022/09/10 08:31:21;;;;;;;27.35;19.50;;;17.20;99.90;;;;;;5078571;28;20045;-52
2022/09/10 08:33:52;;;;;;;26.35;19.17;;;17.20;99.90;;;;;;5077922;28;20197;-51
2022/09/10 08:36:20;;;;;;;27.35;18.17;;;17.10;99.90;;;;;;5078847;28;20059;-49
2022/09/10 08:38:47;;;;;;;26.05;18.67;;;17.10;99.90;;;;;;5089883;28;20037;-51
2022/09/10 08:41:41;;;;;;;25.20;17.75;;;17.10;99.90;;;;;;5098328;28;20071;-52
2022/09/10 08:44:26;;;;;;;25.88;17.92;;;17.20;99.90;;;;;;5095314;28;20102;-51
2022/09/10 08:47:08;;;;;;;26.85;17.25;;;17.20;99.90;;;;;;5097936;28;20546;-49
2022/09/10 08:49:47;;;;;;;27.48;17.38;;;17.30;99.90;;;;;;5098366;28;20503;-51
2022/09/10 08:52:20;;;;;;;28.38;17.23;;;17.30;99.90;;;;;;5098322;28;20518;-52
2022/09/10 08:55:16;;;;;;;24.33;18.30;;;17.30;99.90;;;;;;5096274;28;20122;-51
2022/09/10 08:57:46;;;;;;;26.35;17.63;;;17.30;99.90;;;;;;5098688;28;20412;-48
2022/09/10 09:00:16;;;;;;;26.83;18.75;;;17.20;99.90;;;;;;5097766;28;20052;-51
2022/09/10 09:03:11;;;;;;;25.90;17.20;;;17.20;99.90;;;;;;5097928;28;20047;-51
2022/09/10 09:05:59;;;;;;;20.77;14.18;;;17.20;99.90;;;;;;5098192;28;20058;-52
2022/09/10 09:08:29;;;;;;;21.80;14.77;;;17.20;99.90;;;;;;5097659;28;20032;-49
2022/09/10 09:11:03;;;;;;;20.58;13.75;;;17.30;99.90;;;;;;5097977;28;20068;-52
2022/09/10 09:13:42;;;;;;;18.73;13.80;;;17.40;99.90;;;;;;5098256;28;20054;-51
2022/09/10 09:16:32;;;;;;;17.38;12.57;;;17.40;99.90;;;;;;5094675;28;20044;-52
2022/09/10 09:19:28;;;;;;;17.73;12.70;;;17.50;99.90;;;;;;5077973;28;20671;-51
2022/09/10 09:21:57;;;;;;;19.83;12.07;;;17.50;99.90;;;;;;5077819;28;20086;-51
2022/09/10 09:24:35;;;;;;;18.55;13.20;;;17.50;99.90;;;;;;5077372;28;20044;-49
2022/09/10 09:27:08;;;;;;;17.17;12.25;;;17.40;99.90;;;;;;5078062;28;20049;-52
2022/09/10 09:30:00;;;;;;;18.90;13.93;;;17.60;99.90;;;;;;5077037;28;20171;-49
2022/09/10 09:32:29;;;;;;;21.38;14.43;;;17.60;99.90;;;;;;5077796;28;20052;-51
2022/09/10 09:35:27;;;;;;;22.48;15.38;;;17.50;99.90;;;;;;5077880;28;20060;-52
2022/09/10 09:38:19;;;;;;;21.70;14.77;;;17.60;99.90;;;;;;5082718;28;20051;-51
2022/09/10 09:40:48;;;;;;;21.63;14.80;;;17.50;99.90;;;;;;5097902;28;20052;-49
2022/09/10 09:43:40;;;;;;;20.20;15.23;;;17.50;99.90;;;;;;5097887;28;20068;-53
2022/09/10 09:46:15;;;;;;;23.52;16.27;;;17.50;99.90;;;;;;5094395;28;20127;-49
2022/09/10 09:48:41;;;;;;;24.70;15.70;;;17.40;99.90;;;;;;5097950;28;20460;-50
2022/09/10 09:51:10;;;;;;;21.48;15.27;;;17.50;99.90;;;;;;5097276;28;20048;-51
2022/09/10 09:53:36;;;;;;;21.17;15.00;;;17.50;99.90;;;;;;5097951;28;20048;-50
2022/09/10 09:56:15;;;;;;;20.67;14.23;;;17.60;99.90;;;;;;5097670;28;20036;-51
2022/09/10 09:58:48;;;;;;;18.75;14.10;;;17.60;99.90;;;;;;5100918;28;20054;-52
2022/09/10 10:01:24;;;;;;;19.02;13.18;;;17.70;99.90;;;;;;5101742;28;20054;-52
2022/09/10 10:04:01;;;;;;;17.80;12.43;;;17.70;99.90;;;;;;5101017;28;20040;-49
2022/09/10 10:06:33;;;;;;;20.23;13.75;;;17.70;99.90;;;;;;5101774;28;20056;-50
2022/09/10 10:09:05;;;;;;;17.65;12.68;;;17.80;99.90;;;;;;5101265;28;20043;-51
2022/09/10 10:11:52;;;;;;;18.23;12.77;;;17.60;99.90;;;;;;5101047;28;20037;-52
2022/09/10 10:14:18;;;;;;;18.75;13.88;;;17.50;99.90;;;;;;5101785;28;20048;-51
2022/09/10 10:16:47;;;;;;;19.83;13.23;;;17.60;99.90;;;;;;5092743;28;20048;-51
2022/09/10 10:19:33;;;;;;;23.20;13.88;;;17.70;99.90;;;;;;5081264;28;20059;-52
2022/09/10 10:22:15;;;;;;;22.08;13.70;;;17.70;99.90;;;;;;5081113;28;20048;-49
2022/09/10 10:24:42;;;;;;;18.83;13.27;;;17.70;99.90;;;;;;5080486;28;20055;-50
2022/09/10 10:27:20;;;;;;;24.10;14.30;;;17.70;99.90;;;;;;5081184;28;20052;-51
2022/09/10 10:30:06;;;;;;;21.55;14.63;;;17.80;99.90;;;;;;5080361;28;20447;-52
2022/09/10 10:32:46;;;;;;;18.63;13.52;;;17.70;99.90;;;;;;5080709;28;20044;-49
2022/09/10 10:35:41;;;;;;;20.70;14.20;;;17.80;99.90;;;;;;5080969;28;20048;-50
2022/09/10 10:38:30;;;;;;;21.58;14.50;;;18.00;99.90;;;;;;5079603;28;20101;-50
2022/09/10 10:41:15;;;;;;;23.45;15.82;;;18.00;99.90;;;;;;5100653;28;20074;-51
2022/09/10 10:43:57;;;;;;;21.90;14.55;;;18.10;99.90;;;;;;5100737;28;20058;-49
2022/09/10 10:46:35;;;;;;;20.88;13.77;;;18.00;99.90;;;;;;5100136;28;20123;-51
2022/09/10 10:49:34;;;;;;;21.77;14.13;;;18.00;99.90;;;;;;5100965;28;20125;-50
2022/09/10 10:52:11;;;;;;;20.88;13.82;;;18.10;99.90;;;;;;5100449;28;20076;-50
2022/09/10 10:55:04;;;;;;;20.85;14.43;;;18.20;99.90;;;;;;5099022;28;20055;-52
2022/09/10 10:57:54;;;;;;;21.45;14.70;;;18.20;99.90;;;;;;5101130;28;20055;-52
2022/09/10 11:00:20;;;;;;;24.48;14.70;;;18.30;99.90;;;;;;5100328;28;20063;-49
2022/09/10 11:03:10;;;;;;;22.33;13.75;;;18.40;99.90;;;;;;5100372;28;20044;-51
2022/09/10 11:05:43;;;;;;;18.17;13.68;;;18.50;99.90;;;;;;5100581;28;20063;-52
2022/09/10 11:08:25;;;;;;;19.05;14.10;;;18.60;99.90;;;;;;5099849;28;20075;-51
2022/09/10 11:11:16;;;;;;;17.70;12.38;;;18.60;99.90;;;;;;5100461;28;20044;-52
2022/09/10 11:13:51;;;;;;;17.10;12.43;;;18.70;99.90;;;;;;5098721;28;20044;-50
2022/09/10 11:16:30;;;;;;;18.08;12.07;;;18.90;99.90;;;;;;5095539;28;20119;-50
2022/09/10 11:19:18;;;;;;;17.52;12.45;;;18.90;99.90;;;;;;5080292;28;20056;-52
2022/09/10 11:22:00;;;;;;;18.42;12.05;;;18.90;99.90;;;;;;5080160;28;20044;-51
2022/09/10 11:24:33;;;;;;;18.17;12.85;;;19.00;99.90;;;;;;5079563;28;20424;-51
2022/09/10 11:27:17;;;;;;;17.35;12.80;;;19.00;99.90;;;;;;5080084;28;20430;-52
2022/09/10 11:30:02;;;;;;;16.30;11.80;;;19.10;99.90;;;;;;5079303;28;20092;-51
2022/09/10 11:32:43;;;;;;;16.20;11.57;;;19.20;99.90;;;;;;5079563;28;20044;-52
2022/09/10 11:35:27;;;;;;;15.85;11.13;;;19.20;99.90;;;;;;5079912;28;20049;-52
2022/09/10 11:38:06;;;;;;;17.02;11.27;;;19.20;99.90;;;;;;5084809;28;20043;-49
2022/09/10 11:40:50;;;;;;;16.00;10.60;;;19.40;99.90;;;;;;5099924;28;20051;-53
2022/09/10 11:43:46;;;;;;;14.60;9.52;;;19.40;99.90;;;;;;5099779;28;20100;-51
2022/09/10 11:46:17;;;;;;;17.65;11.45;;;19.50;99.90;;;;;;5098867;28;20048;-52
2022/09/10 11:48:52;;;;;;;15.27;10.00;;;19.50;99.90;;;;;;5100096;28;20127;-51
2022/09/10 11:51:32;;;;;;;13.57;10.05;;;19.50;99.90;;;;;;5099277;28;20044;-52
2022/09/10 11:54:01;;;;;;;16.77;11.02;;;19.50;99.90;;;;;;5099248;28;20073;-51
2022/09/10 11:57:11;;;;;;;17.65;13.40;;;19.50;99.90;;;;;;5099593;28;20060;-51
2022/09/10 12:00:08;;;;;;;16.75;11.23;;;19.50;99.90;;;;;;5075659;28;20118;-51
2022/09/10 12:03:01;;;;;;;15.52;12.18;;;19.50;99.90;;;;;;5099063;28;20058;-51
2022/09/10 12:05:39;;;;;;;16.02;11.73;;;19.40;99.90;;;;;;5099322;28;20099;-52
2022/09/10 12:08:04;;;;;;;17.75;11.07;;;19.50;99.90;;;;;;5098836;28;20058;-50
2022/09/10 12:10:38;;;;;;;15.73;11.77;;;19.60;99.90;;;;;;5099214;28;20404;-52
2022/09/10 12:13:14;;;;;;;14.20;9.50;;;19.70;99.90;;;;;;5099239;28;20103;-49
2022/09/10 12:15:47;;;;;;;13.65;8.70;;;19.70;99.90;;;;;;5098878;28;20052;-50
2022/09/10 12:18:16;;;;;;;11.82;8.23;;;19.70;99.90;;;;;;5078592;28;20047;-50
2022/09/10 12:20:58;;;;;;;12.48;7.93;;;19.70;99.90;;;;;;5077642;28;20067;-50
2022/09/10 12:23:31;;;;;;;10.27;7.25;;;19.80;99.90;;;;;;5078922;28;20126;-50
2022/09/10 12:25:59;;;;;;;11.40;7.53;;;19.80;99.90;;;;;;5078644;28;20044;-52
2022/09/10 12:28:40;;;;;;;11.88;7.43;;;19.90;99.90;;;;;;5078140;28;20032;-51
2022/09/10 12:31:07;;;;;;;10.20;6.63;;;20.00;99.90;;;;;;5078606;28;20051;-52
2022/09/10 12:33:44;;;;;;;9.70;6.65;;;19.90;99.90;;;;;;5077826;28;20045;-50
2022/09/10 12:36:33;;;;;;;13.52;8.75;;;19.90;99.90;;;;;;5078803;28;20044;-52
2022/09/10 12:39:25;;;;;;;12.80;8.20;;;19.90;99.90;;;;;;5082378;28;20052;-52
2022/09/10 12:41:51;;;;;;;12.95;8.93;;;19.90;99.90;;;;;;5098035;28;20066;-50
2022/09/10 12:44:35;;;;;;;11.95;8.15;;;19.70;99.90;;;;;;5099068;28;20578;-51
2022/09/10 12:47:12;;;;;;;13.93;9.07;;;19.80;99.90;;;;;;5098229;28;20092;-50
2022/09/10 12:49:56;;;;;;;15.38;9.20;;;19.90;99.90;;;;;;5098151;28;20154;-49
2022/09/10 12:52:38;;;;;;;16.45;9.13;;;20.10;99.90;;;;;;5098347;28;20044;-52